Time;durP1;ratioP1;P1;durP2;ratioP2;P2;SDS_P1;SDS_P2;PMS_P1;PMS_P2;Temp;Humidity;BMP_temperature;BMP_pressure;BME280_temperature;BME280_humidity;BME280_pressure;Samples;Min_cycle;Max_cycle;Signal;HPM_P1;HPM_P2
2022/01/16 00:01:22;;;;;;;16.60;11.70;;;;;;101377.09;;;;106458;1297;65351;-42
2022/01/16 00:04:09;;;;;;;16.00;11.60;;;;;;101375.67;;;;106467;1298;62580;-40
2022/01/16 00:06:42;;;;;;;16.50;11.10;;;;;;101382.90;;;;106446;1300;62602;-41
2022/01/16 00:09:10;;;;;;;17.70;11.80;;;;;;101383.44;;;;106574;1297;62629;-31
2022/01/16 00:11:38;;;;;;;17.40;11.30;;;;;;101383.33;;;;106482;1300;62562;-30
2022/01/16 00:14:06;;;;;;;19.00;11.90;;;;;;101387.11;;;;106475;1297;64889;-30
2022/01/16 00:16:36;;;;;;;15.60;10.80;;;;;;101371.27;;;;106577;1297;62633;-30
2022/01/16 00:19:06;;;;;;;15.40;10.70;;;;;;101366.29;;;;106492;1299;62539;-31
2022/01/16 00:21:38;;;;;;;14.30;10.60;;;;;;101373.66;;;;106464;1297;62582;-30
2022/01/16 00:24:10;;;;;;;15.10;11.20;;;;;;101378.66;;;;106479;1297;62653;-41
2022/01/16 00:26:43;;;;;;;14.50;10.40;;;;;;101375.86;;;;106463;1298;64956;-42
2022/01/16 00:29:12;;;;;;;15.60;11.70;;;;;;101367.98;;;;106545;1297;62590;-30
2022/01/16 00:31:42;;;;;;;16.70;11.70;;;;;;101361.61;;;;106569;1297;62698;-31
2022/01/16 00:34:11;;;;;;;16.10;11.00;;;;;;101365.42;;;;106437;1299;62721;-30
2022/01/16 00:36:38;;;;;;;16.20;10.90;;;;;;101371.98;;;;106491;1298;62534;-31
2022/01/16 00:39:06;;;;;;;14.60;11.00;;;;;;101373.77;;;;106594;1297;65245;-41
2022/01/16 00:41:36;;;;;;;16.20;11.20;;;;;;101381.98;;;;106479;1297;62605;-41
2022/01/16 00:44:06;;;;;;;16.90;10.80;;;;;;101381.05;;;;106586;1296;62553;-31
2022/01/16 00:46:36;;;;;;;15.60;10.80;;;;;;101376.90;;;;106525;1297;62707;-30
2022/01/16 00:49:04;;;;;;;17.50;11.70;;;;;;101369.59;;;;106502;1300;62535;-43
2022/01/16 00:51:34;;;;;;;15.90;11.10;;;;;;101356.98;;;;106603;1297;66257;-42
2022/01/16 00:54:01;;;;;;;15.20;11.10;;;;;;101360.17;;;;106587;1297;62549;-42
2022/01/16 00:56:28;;;;;;;14.90;10.70;;;;;;101376.30;;;;106468;1299;62667;-41
2022/01/16 00:58:55;;;;;;;15.80;10.70;;;;;;101382.38;;;;106462;1299;62669;-42
2022/01/16 01:01:22;;;;;;;15.20;11.10;;;;;;101392.27;;;;106511;1299;62568;-41
2022/01/16 01:03:50;;;;;;;17.10;11.70;;;;;;101406.78;;;;106243;1300;323460;-40
2022/01/16 01:06:16;;;;;;;17.10;11.00;;;;;;101405.65;;;;106481;1300;62517;-41
2022/01/16 01:08:44;;;;;;;16.80;11.50;;;;;;101404.02;;;;106487;1299;62592;-30
2022/01/16 01:11:15;;;;;;;14.90;11.30;;;;;;101391.92;;;;106463;1298;62613;-30
2022/01/16 01:13:56;;;;;;;14.40;11.50;;;;;;101365.04;;;;106512;1300;62655;-42
2022/01/16 01:16:35;;;;;;;14.40;9.90;;;;;;101350.23;;;;106556;1296;67702;-32
2022/01/16 01:19:05;;;;;;;15.20;11.10;;;;;;101369.14;;;;106454;1300;62658;-46
2022/01/16 01:21:35;;;;;;;15.30;10.80;;;;;;101368.58;;;;106556;1297;62884;-31
2022/01/16 01:24:02;;;;;;;14.90;10.70;;;;;;101349.49;;;;106464;1299;62609;-29
2022/01/16 01:26:36;;;;;;;16.00;10.70;;;;;;101350.94;;;;106484;1300;62552;-33
2022/01/16 01:29:04;;;;;;;13.70;10.00;;;;;;101361.59;;;;106470;1297;69181;-30
2022/01/16 01:31:31;;;;;;;15.70;10.60;;;;;;101330.23;;;;106467;1299;62601;-30
2022/01/16 01:33:58;;;;;;;15.60;10.90;;;;;;101327.81;;;;106595;1297;62588;-31
2022/01/16 01:36:25;;;;;;;16.70;9.80;;;;;;101345.90;;;;106494;1298;62592;-31
2022/01/16 01:38:53;;;;;;;15.90;10.60;;;;;;101333.36;;;;106515;1300;62574;-42
2022/01/16 01:41:20;;;;;;;14.70;11.30;;;;;;101348.66;;;;106462;1297;64787;-41
2022/01/16 01:52:08;;;;;;;12.10;9.60;;;;;;101234.79;;;;106556;1297;62558;-31
2022/01/16 01:54:35;;;;;;;15.20;10.10;;;;;;101205.33;;;;106501;1298;66197;-30
2022/01/16 01:57:02;;;;;;;12.70;9.70;;;;;;101213.66;;;;106472;1299;62669;-30
2022/01/16 01:59:32;;;;;;;14.50;10.00;;;;;;101218.32;;;;106479;1299;62558;-30
2022/01/16 02:02:00;;;;;;;13.50;10.10;;;;;;101210.95;;;;106453;1298;62624;-30
2022/01/16 02:04:27;;;;;;;13.90;9.90;;;;;;101231.55;;;;106481;1299;62584;-30
2022/01/16 02:06:54;;;;;;;13.70;10.70;;;;;;101263.09;;;;106570;1296;66235;-30
2022/01/16 02:09:21;;;;;;;12.80;10.00;;;;;;101273.36;;;;106573;1297;62501;-41
2022/01/16 02:11:49;;;;;;;13.00;10.10;;;;;;101295.94;;;;106577;1297;62557;-41
2022/01/16 02:28:25;;;;;;;14.50;9.60;;;;;;101273.95;;;;106514;1297;62494;-31
2022/01/16 02:36:29;;;;;;;16.80;9.80;;;;;;101281.08;;;;106468;1300;62723;-30
2022/01/16 02:39:10;;;;;;;13.60;10.50;;;;;;101288.30;;;;106499;1299;62533;-30
2022/01/16 02:41:43;;;;;;;14.00;9.60;;;;;;101280.66;;;;106572;1297;62640;-30
2022/01/16 02:46:44;;;;;;;15.10;10.60;;;;;;101306.84;;;;106489;1299;66196;-30
2022/01/16 02:49:44;;;;;;;12.60;9.40;;;;;;101300.25;;;;106582;1297;62631;-30
2022/01/16 02:52:14;;;;;;;12.70;9.80;;;;;;101299.09;;;;106561;1297;62648;-30
2022/01/16 02:54:44;;;;;;;14.30;10.00;;;;;;101301.77;;;;106556;1296;62644;-30
2022/01/16 02:57:18;;;;;;;13.90;10.30;;;;;;101301.40;;;;106592;1296;62613;-30
2022/01/16 02:59:52;;;;;;;15.20;10.60;;;;;;101305.21;;;;106609;1297;67818;-41
2022/01/16 03:02:22;;;;;;;14.10;10.40;;;;;;101292.98;;;;106555;1296;62775;-41
2022/01/16 03:04:49;;;;;;;12.90;10.00;;;;;;101294.01;;;;106501;1298;62472;-30
2022/01/16 03:07:16;;;;;;;12.60;9.70;;;;;;101292.36;;;;106435;1300;62757;-31
2022/01/16 03:10:02;;;;;;;13.90;9.90;;;;;;101295.50;;;;106506;1299;62553;-42
2022/01/16 03:12:29;;;;;;;14.00;9.50;;;;;;101293.77;;;;106490;1298;67757;-41
2022/01/16 03:14:59;;;;;;;14.10;10.00;;;;;;101292.78;;;;106479;1299;62552;-33
2022/01/16 03:21:52;;;;;;;13.60;10.60;;;;;;101292.34;;;;106476;1298;62596;-30
2022/01/16 03:23:09;;;;;;;12.70;9.60;;;;;;101285.65;;;;106499;1300;62604;-41
2022/01/16 03:25:36;;;;;;;13.70;9.30;;;;;;101291.02;;;;106602;1297;66179;-41
2022/01/16 03:28:06;;;;;;;14.10;9.80;;;;;;101290.06;;;;106437;1298;62682;-41
2022/01/16 03:30:34;;;;;;;13.70;9.60;;;;;;101283.65;;;;106501;1300;62665;-41
2022/01/16 03:33:01;;;;;;;16.60;10.40;;;;;;101266.66;;;;106555;1296;62493;-41
2022/01/16 03:35:28;;;;;;;13.20;9.70;;;;;;101260.17;;;;106596;1297;62554;-30
2022/01/16 03:37:55;;;;;;;12.00;9.40;;;;;;101252.94;;;;106476;1300;67312;-31
2022/01/16 03:40:24;;;;;;;12.90;10.00;;;;;;101252.59;;;;106480;1298;62766;-41
2022/01/16 03:42:52;;;;;;;13.00;9.70;;;;;;101256.48;;;;106459;1297;62663;-41
2022/01/16 03:45:19;;;;;;;11.90;9.00;;;;;;101247.70;;;;106514;1299;62708;-41
2022/01/16 03:47:46;;;;;;;13.70;9.60;;;;;;101242.88;;;;106567;1297;62614;-41
2022/01/16 03:50:13;;;;;;;15.70;10.10;;;;;;101238.30;;;;106583;1296;66044;-41
2022/01/16 03:52:44;;;;;;;13.80;9.90;;;;;;101246.95;;;;106508;1299;62597;-41
2022/01/16 03:55:14;;;;;;;12.70;9.40;;;;;;101251.25;;;;106500;1300;62663;-29
2022/01/16 03:57:41;;;;;;;12.80;9.70;;;;;;101248.30;;;;106482;1299;62681;-30
2022/01/16 04:00:12;;;;;;;12.40;9.50;;;;;;101239.04;;;;106519;1298;62568;-30
2022/01/16 04:02:39;;;;;;;13.10;10.10;;;;;;101236.80;;;;106504;1299;66120;-30
2022/01/16 04:05:06;;;;;;;13.90;10.10;;;;;;101239.66;;;;106500;1299;62639;-29
2022/01/16 04:07:37;;;;;;;13.30;10.10;;;;;;101235.82;;;;106503;1298;62632;-30
2022/01/16 04:10:07;;;;;;;13.70;10.70;;;;;;101228.73;;;;106584;1297;62637;-30
2022/01/16 04:12:39;;;;;;;14.90;10.50;;;;;;101223.27;;;;106467;1299;62522;-31
2022/01/16 04:17:39;;;;;;;12.70;9.70;;;;;;101230.60;;;;106509;1298;62681;-30
2022/01/16 04:20:15;;;;;;;14.60;10.10;;;;;;101231.42;;;;106451;1298;62547;-31
2022/01/16 04:22:45;;;;;;;12.50;9.30;;;;;;101221.01;;;;106537;1297;62898;-31
2022/01/16 04:25:15;;;;;;;13.50;9.60;;;;;;101212.73;;;;106513;1298;62630;-30
2022/01/16 04:27:46;;;;;;;14.90;10.40;;;;;;101216.04;;;;106438;1299;67195;-30
2022/01/16 04:30:14;;;;;;;14.00;10.00;;;;;;101217.95;;;;106485;1299;62599;-41
2022/01/16 04:32:42;;;;;;;12.70;9.60;;;;;;101204.94;;;;106461;1299;63133;-44
2022/01/16 04:35:09;;;;;;;13.80;10.50;;;;;;101206.98;;;;106548;1297;62621;-30
2022/01/16 04:37:39;;;;;;;13.30;9.70;;;;;;101205.38;;;;106524;1299;62651;-30
2022/01/16 04:40:07;;;;;;;14.20;9.70;;;;;;101205.69;;;;106519;1298;64820;-30
2022/01/16 04:45:20;;;;;;;13.10;9.40;;;;;;101207.39;;;;106474;1296;62686;-41
2022/01/16 04:47:50;;;;;;;13.90;9.90;;;;;;101203.20;;;;106465;1299;62533;-41
2022/01/16 04:50:17;;;;;;;13.60;9.70;;;;;;101192.74;;;;106542;1299;62501;-30
2022/01/16 04:52:45;;;;;;;13.80;9.70;;;;;;101192.27;;;;106515;1298;65568;-31
2022/01/16 04:55:13;;;;;;;13.60;9.90;;;;;;101190.66;;;;106504;1298;62596;-31
2022/01/16 04:57:41;;;;;;;14.00;10.00;;;;;;101185.16;;;;106483;1299;62656;-30
2022/01/16 05:00:14;;;;;;;13.30;9.80;;;;;;101189.70;;;;106490;1298;62658;-41
2022/01/16 05:02:42;;;;;;;14.00;10.20;;;;;;101186.75;;;;106449;1296;62592;-42
2022/01/16 05:05:12;;;;;;;16.00;11.00;;;;;;101192.73;;;;106500;1298;66315;-41
2022/01/16 05:07:40;;;;;;;13.50;10.10;;;;;;101192.94;;;;106469;1297;62794;-41
2022/01/16 05:10:08;;;;;;;13.60;10.20;;;;;;101179.83;;;;106576;1296;62539;-41
2022/01/16 05:12:43;;;;;;;14.70;10.10;;;;;;101173.52;;;;106473;1297;62528;-41
2022/01/16 05:17:56;;;;;;;14.90;10.90;;;;;;101163.10;;;;106512;1298;67412;-30
2022/01/16 05:20:23;;;;;;;14.00;10.80;;;;;;101156.85;;;;106509;1298;62668;-32
2022/01/16 05:22:51;;;;;;;13.30;9.90;;;;;;101163.78;;;;106565;1296;62686;-30
2022/01/16 05:25:18;;;;;;;14.60;10.40;;;;;;101167.11;;;;106551;1297;63071;-41
2022/01/16 05:27:46;;;;;;;14.70;10.70;;;;;;101162.02;;;;106434;1299;62625;-41
2022/01/16 05:30:13;;;;;;;14.30;10.70;;;;;;101151.11;;;;106541;1300;66094;-40
2022/01/16 05:32:40;;;;;;;14.40;10.80;;;;;;101149.91;;;;106505;1299;62621;-41
2022/01/16 05:35:10;;;;;;;14.00;10.80;;;;;;101144.60;;;;106579;1297;62549;-41
2022/01/16 05:37:40;;;;;;;15.00;11.00;;;;;;101135.25;;;;106496;1299;62639;-40
2022/01/16 05:40:08;;;;;;;14.00;10.90;;;;;;101130.59;;;;106516;1299;62744;-30
2022/01/16 05:42:35;;;;;;;14.50;10.70;;;;;;101118.59;;;;106480;1297;65703;-30
2022/01/16 05:45:03;;;;;;;14.30;10.80;;;;;;101119.02;;;;106509;1298;62494;-41
2022/01/16 05:47:30;;;;;;;15.20;10.70;;;;;;101126.06;;;;106520;1298;62595;-41
2022/01/16 05:49:57;;;;;;;15.00;10.50;;;;;;101129.33;;;;106485;1299;62684;-41
2022/01/16 05:52:24;;;;;;;14.90;10.30;;;;;;101122.52;;;;106581;1296;62483;-41
2022/01/16 05:54:51;;;;;;;13.20;10.80;;;;;;101117.65;;;;106594;1297;65173;-42
2022/01/16 05:57:18;;;;;;;15.40;11.10;;;;;;101116.52;;;;106494;1299;62662;-41
2022/01/16 05:59:45;;;;;;;14.90;10.50;;;;;;101118.67;;;;106516;1299;62519;-31
2022/01/16 06:02:16;;;;;;;14.10;10.30;;;;;;101110.95;;;;106475;1298;62550;-31
2022/01/16 06:04:47;;;;;;;15.60;10.90;;;;;;101115.30;;;;106516;1299;62559;-30
2022/01/16 06:07:14;;;;;;;14.20;10.60;;;;;;101108.05;;;;106449;1298;64816;-30
2022/01/16 06:09:44;;;;;;;13.50;10.10;;;;;;101100.27;;;;106582;1297;62647;-40
2022/01/16 06:12:12;;;;;;;14.90;10.90;;;;;;101097.52;;;;106522;1299;62597;-41
2022/01/16 06:14:39;;;;;;;13.40;10.40;;;;;;101092.30;;;;106492;1299;62590;-30
2022/01/16 06:17:06;;;;;;;14.20;10.40;;;;;;101091.03;;;;106531;1299;62648;-34
2022/01/16 06:19:33;;;;;;;13.00;9.80;;;;;;101087.89;;;;106581;1297;65263;-30
2022/01/16 06:22:00;;;;;;;15.60;10.30;;;;;;101081.05;;;;106488;1298;62736;-30
2022/01/16 06:24:28;;;;;;;14.80;10.70;;;;;;101072.50;;;;106592;1297;62677;-41
2022/01/16 06:26:56;;;;;;;13.80;10.20;;;;;;101071.45;;;;106563;1296;62812;-41
2022/01/16 06:29:23;;;;;;;14.50;10.40;;;;;;101063.36;;;;106517;1299;62581;-40
2022/01/16 06:31:50;;;;;;;13.00;10.20;;;;;;101069.27;;;;106455;1299;66198;-40
2022/01/16 06:34:18;;;;;;;12.60;9.90;;;;;;101072.27;;;;106485;1298;62627;-31
2022/01/16 06:36:45;;;;;;;15.20;10.70;;;;;;101069.73;;;;106498;1298;62686;-30
2022/01/16 06:39:12;;;;;;;15.20;10.70;;;;;;101062.12;;;;106546;1297;62617;-41
2022/01/16 06:41:40;;;;;;;13.20;10.60;;;;;;101055.29;;;;106600;1297;62544;-41
2022/01/16 06:44:10;;;;;;;13.20;10.60;;;;;;101062.10;;;;106511;1298;66063;-41
2022/01/16 06:46:37;;;;;;;14.50;10.30;;;;;;101064.30;;;;106515;1299;62575;-41
2022/01/16 06:49:04;;;;;;;15.80;10.60;;;;;;101069.77;;;;106503;1298;62608;-40
2022/01/16 06:51:35;;;;;;;15.20;10.40;;;;;;101069.27;;;;106493;1298;62478;-40
2022/01/16 06:54:03;;;;;;;14.80;11.10;;;;;;101074.94;;;;106604;1296;62571;-41
2022/01/16 06:56:30;;;;;;;14.70;11.20;;;;;;101070.03;;;;106589;1297;64987;-41
2022/01/16 06:59:00;;;;;;;14.50;11.00;;;;;;101071.59;;;;106556;1297;62657;-41
2022/01/16 07:01:30;;;;;;;13.40;10.10;;;;;;101067.33;;;;106513;1298;62619;-41
2022/01/16 07:03:57;;;;;;;14.40;11.00;;;;;;101061.90;;;;106491;1300;62667;-30
2022/01/16 07:06:28;;;;;;;15.40;11.00;;;;;;101059.83;;;;106535;1299;62619;-30
2022/01/16 07:08:55;;;;;;;13.90;10.30;;;;;;101067.54;;;;106524;1299;64817;-40
2022/01/16 07:11:22;;;;;;;14.30;10.10;;;;;;101071.15;;;;106478;1299;62601;-41
2022/01/16 07:13:49;;;;;;;14.10;10.20;;;;;;101073.45;;;;106526;1299;63286;-42
2022/01/16 07:16:16;;;;;;;13.90;10.30;;;;;;101083.27;;;;106480;1298;62598;-41
2022/01/16 07:18:44;;;;;;;15.10;10.40;;;;;;101082.48;;;;106467;1299;62631;-41
2022/01/16 07:21:14;;;;;;;14.30;10.40;;;;;;101081.43;;;;106517;1298;67438;-40
2022/01/16 07:23:43;;;;;;;14.50;10.60;;;;;;101083.54;;;;106598;1296;62696;-41
2022/01/16 07:26:18;;;;;;;14.80;10.60;;;;;;101076.58;;;;106510;1299;62485;-42
2022/01/16 07:28:48;;;;;;;13.70;10.60;;;;;;101075.23;;;;106505;1298;62648;-47
2022/01/16 07:31:15;;;;;;;13.50;10.00;;;;;;101067.25;;;;106503;1299;62642;-42
2022/01/16 07:33:43;;;;;;;12.90;10.30;;;;;;101059.70;;;;106498;1298;64684;-30
2022/01/16 07:36:13;;;;;;;14.40;10.60;;;;;;101061.36;;;;106493;1298;62715;-30
2022/01/16 07:38:40;;;;;;;13.40;10.00;;;;;;101063.78;;;;106506;1299;62622;-31
2022/01/16 07:41:07;;;;;;;12.70;10.50;;;;;;101067.50;;;;106560;1297;62704;-30
2022/01/16 07:43:34;;;;;;;13.30;10.00;;;;;;101064.07;;;;106601;1297;62565;-30
2022/01/16 07:46:02;;;;;;;12.50;9.50;;;;;;101060.11;;;;106497;1298;66434;-30
2022/01/16 07:48:32;;;;;;;12.60;9.40;;;;;;101065.31;;;;106509;1298;62504;-43
2022/01/16 07:50:59;;;;;;;13.50;9.70;;;;;;101063.53;;;;106559;1296;62533;-42
2022/01/16 07:53:27;;;;;;;12.40;9.10;;;;;;101062.64;;;;106493;1298;62596;-33
2022/01/16 07:55:54;;;;;;;12.30;9.60;;;;;;101058.52;;;;106500;1298;62591;-41
2022/01/16 07:58:21;;;;;;;13.50;9.60;;;;;;101055.50;;;;106577;1296;65918;-41
2022/01/16 08:00:48;;;;;;;12.90;9.40;;;;;;101053.10;;;;106486;1299;62552;-41
2022/01/16 08:03:15;;;;;;;13.10;9.50;;;;;;101056.33;;;;106489;1299;62611;-41
2022/01/16 08:05:42;;;;;;;13.30;9.50;;;;;;101052.06;;;;106584;1296;62668;-41
2022/01/16 08:08:10;;;;;;;12.20;9.30;;;;;;101050.48;;;;106595;1297;62583;-41
2022/01/16 08:10:38;;;;;;;11.50;8.80;;;;;;101044.73;;;;106548;1299;66074;-31
2022/01/16 08:13:05;;;;;;;12.90;9.80;;;;;;101041.28;;;;106541;1297;62704;-33
2022/01/16 08:15:35;;;;;;;12.90;8.70;;;;;;101036.84;;;;106490;1299;62719;-42
2022/01/16 08:18:02;;;;;;;12.90;9.10;;;;;;101039.33;;;;106596;1296;62625;-41
2022/01/16 08:20:32;;;;;;;12.80;9.80;;;;;;101040.06;;;;106459;1299;62548;-41
2022/01/16 08:23:00;;;;;;;13.20;9.50;;;;;;101037.02;;;;106497;1297;66525;-41
2022/01/16 08:25:27;;;;;;;12.10;9.30;;;;;;101032.45;;;;106501;1297;62777;-30
2022/01/16 08:27:54;;;;;;;13.40;9.30;;;;;;101031.83;;;;106457;1300;62675;-30
2022/01/16 08:30:22;;;;;;;12.00;9.30;;;;;;101033.54;;;;106479;1297;62640;-41
2022/01/16 08:32:49;;;;;;;12.30;9.30;;;;;;101020.10;;;;106610;1297;62556;-42
2022/01/16 08:35:16;;;;;;;11.80;8.90;;;;;;101006.74;;;;106520;1299;65488;-41
2022/01/16 08:37:47;;;;;;;12.90;9.40;;;;;;101003.75;;;;106495;1300;62668;-41
2022/01/16 08:40:15;;;;;;;12.50;9.10;;;;;;101001.20;;;;106577;1296;62520;-34
2022/01/16 08:42:45;;;;;;;11.50;8.50;;;;;;100998.84;;;;106572;1297;62594;-29
2022/01/16 08:45:16;;;;;;;11.90;8.90;;;;;;100999.17;;;;106453;1299;62526;-30
2022/01/16 08:47:44;;;;;;;14.00;8.80;;;;;;101000.54;;;;106504;1299;67445;-30
2022/01/16 08:50:15;;;;;;;11.50;8.20;;;;;;101002.95;;;;106473;1297;62713;-29
2022/01/16 08:52:42;;;;;;;13.40;9.20;;;;;;101001.92;;;;106577;1296;62916;-29
2022/01/16 08:55:10;;;;;;;11.40;8.20;;;;;;100991.20;;;;106426;1299;62679;-33
2022/01/16 08:57:41;;;;;;;11.70;8.60;;;;;;100986.67;;;;106528;1299;62450;-40
2022/01/16 09:00:12;;;;;;;13.30;9.40;;;;;;100981.59;;;;106575;1297;64887;-29
2022/01/16 09:02:39;;;;;;;11.00;8.20;;;;;;100972.42;;;;106252;1299;333752;-30
2022/01/16 09:05:10;;;;;;;12.20;8.10;;;;;;100968.30;;;;106497;1298;62557;-42
2022/01/16 09:07:37;;;;;;;11.00;8.20;;;;;;100968.30;;;;106565;1297;62598;-41
2022/01/16 09:10:05;;;;;;;11.90;9.00;;;;;;100968.15;;;;106467;1299;62551;-29
2022/01/16 09:12:34;;;;;;;12.00;8.30;;;;;;100960.58;;;;106488;1299;65314;-30
2022/01/16 09:15:07;;;;;;;10.80;8.10;;;;;;100955.03;;;;106498;1300;62708;-30
2022/01/16 09:17:34;;;;;;;12.30;9.00;;;;;;100952.84;;;;106475;1298;62723;-29
2022/01/16 09:20:02;;;;;;;10.80;7.80;;;;;;100955.67;;;;106475;1300;62711;-41
2022/01/16 09:22:30;;;;;;;11.70;8.50;;;;;;100953.42;;;;106513;1299;62639;-41
2022/01/16 09:24:57;;;;;;;12.30;8.10;;;;;;100947.73;;;;106495;1298;65019;-29
2022/01/16 09:27:24;;;;;;;12.30;8.20;;;;;;100939.89;;;;106467;1300;62747;-39
2022/01/16 09:29:51;;;;;;;11.90;8.30;;;;;;100935.95;;;;106498;1299;62527;-29
2022/01/16 09:32:18;;;;;;;10.80;8.20;;;;;;100927.67;;;;106497;1298;62568;-31
2022/01/16 09:34:46;;;;;;;11.50;8.20;;;;;;100922.92;;;;106518;1299;62572;-41
2022/01/16 09:37:13;;;;;;;11.30;8.00;;;;;;100923.96;;;;106575;1297;65310;-41
2022/01/16 09:39:40;;;;;;;12.00;7.80;;;;;;100916.94;;;;106474;1300;62678;-41
2022/01/16 09:42:11;;;;;;;11.60;8.20;;;;;;100914.02;;;;106420;1299;62670;-41
2022/01/16 09:44:41;;;;;;;10.70;8.20;;;;;;100909.31;;;;106480;1299;62904;-29
2022/01/16 09:47:09;;;;;;;10.90;7.70;;;;;;100908.63;;;;106449;1297;62699;-30
2022/01/16 09:49:36;;;;;;;10.70;7.80;;;;;;100907.88;;;;106482;1299;66487;-30
2022/01/16 09:52:04;;;;;;;10.80;7.70;;;;;;100903.61;;;;106488;1299;62692;-29
2022/01/16 09:54:39;;;;;;;10.10;7.20;;;;;;100901.23;;;;106434;1299;62584;-41
2022/01/16 09:57:12;;;;;;;10.90;7.90;;;;;;100893.53;;;;106486;1299;62648;-41
2022/01/16 09:59:47;;;;;;;11.30;8.40;;;;;;100890.75;;;;106601;1297;62614;-46
2022/01/16 10:02:15;;;;;;;12.30;8.50;;;;;;100885.10;;;;106478;1299;67132;-46
2022/01/16 10:04:43;;;;;;;11.20;8.00;;;;;;100876.68;;;;106546;1296;62696;-30
2022/01/16 10:07:16;;;;;;;11.90;7.90;;;;;;100877.55;;;;106495;1299;62558;-29
2022/01/16 10:10:11;;;;;;;11.60;7.70;;;;;;100874.59;;;;106483;1299;62748;-41
2022/01/16 10:12:48;;;;;;;10.10;7.40;;;;;;100862.92;;;;106502;1299;62592;-31
2022/01/16 10:15:21;;;;;;;10.50;7.80;;;;;;100852.65;;;;106584;1297;67069;-30
2022/01/16 10:17:53;;;;;;;12.80;7.70;;;;;;100825.02;;;;106549;1296;62754;-30
2022/01/16 10:20:23;;;;;;;10.80;7.70;;;;;;100827.38;;;;106485;1298;62659;-41
2022/01/16 10:22:55;;;;;;;11.50;7.50;;;;;;100828.25;;;;106468;1299;62630;-41
2022/01/16 10:25:44;;;;;;;10.30;7.40;;;;;;100831.67;;;;106500;1299;62597;-29
2022/01/16 10:28:24;;;;;;;11.80;8.50;;;;;;100827.86;;;;106480;1299;67346;-29
2022/01/16 10:30:55;;;;;;;12.60;8.70;;;;;;100830.09;;;;106455;1299;62547;-30
2022/01/16 10:33:26;;;;;;;13.90;9.40;;;;;;100830.14;;;;106571;1297;62644;-30
2022/01/16 10:35:56;;;;;;;12.70;9.30;;;;;;100827.16;;;;106456;1300;62632;-29
2022/01/16 10:38:29;;;;;;;13.20;9.30;;;;;;100831.34;;;;106513;1298;62577;-29
2022/01/16 10:41:00;;;;;;;12.30;9.00;;;;;;100831.66;;;;106446;1298;67320;-30
2022/01/16 10:44:00;;;;;;;13.70;9.90;;;;;;100830.86;;;;106448;1297;62692;-35
2022/01/16 10:46:27;;;;;;;14.70;9.90;;;;;;100825.65;;;;106308;1299;62702;-30
2022/01/16 10:49:15;;;;;;;16.40;9.60;;;;;;100825.33;;;;106472;1299;62661;-30
2022/01/16 10:51:44;;;;;;;13.30;9.90;;;;;;100819.23;;;;106490;1298;62564;-29
2022/01/16 10:54:33;;;;;;;14.00;10.00;;;;;;100810.73;;;;106438;1299;66315;-41
2022/01/16 10:57:27;;;;;;;13.60;10.10;;;;;;100802.72;;;;106472;1298;62676;-41
2022/01/16 11:00:11;;;;;;;12.90;9.20;;;;;;100794.81;;;;106487;1298;62695;-30
2022/01/16 11:02:42;;;;;;;11.90;9.90;;;;;;100788.90;;;;106467;1299;62548;-30
2022/01/16 11:05:18;;;;;;;13.20;10.00;;;;;;100781.40;;;;106594;1296;62562;-41
2022/01/16 11:08:04;;;;;;;13.20;10.30;;;;;;100786.30;;;;106487;1299;66939;-31
2022/01/16 11:10:38;;;;;;;12.00;9.10;;;;;;100783.91;;;;106480;1297;62595;-41
2022/01/16 11:13:15;;;;;;;12.70;9.40;;;;;;100778.98;;;;106432;1300;62540;-29
2022/01/16 11:15:47;;;;;;;15.00;9.70;;;;;;100770.48;;;;106329;1299;62511;-30
2022/01/16 11:18:17;;;;;;;12.00;8.90;;;;;;100770.70;;;;106405;1299;62702;-42
2022/01/16 11:20:56;;;;;;;13.80;9.70;;;;;;100763.55;;;;106457;1297;65889;-41
2022/01/16 11:23:31;;;;;;;13.30;9.50;;;;;;100760.15;;;;106463;1299;62781;-40
2022/01/16 11:26:06;;;;;;;13.00;9.20;;;;;;100755.79;;;;106427;1299;62732;-52
2022/01/16 11:28:35;;;;;;;13.00;9.70;;;;;;100748.34;;;;106434;1297;62646;-28
2022/01/16 11:31:06;;;;;;;12.80;9.50;;;;;;100742.42;;;;106520;1298;62674;-42
2022/01/16 11:33:35;;;;;;;11.60;9.30;;;;;;100739.86;;;;106524;1299;66934;-40
2022/01/16 11:36:14;;;;;;;13.00;9.90;;;;;;100739.56;;;;106567;1297;62634;-28
2022/01/16 11:38:49;;;;;;;14.60;9.00;;;;;;100737.65;;;;106406;1296;62652;-30
2022/01/16 11:41:54;;;;;;;12.40;9.00;;;;;;100737.66;;;;106429;1298;62474;-29
2022/01/16 11:44:30;;;;;;;10.60;8.70;;;;;;100734.10;;;;106428;1299;62535;-29
2022/01/16 11:47:04;;;;;;;11.40;8.70;;;;;;100726.41;;;;106360;1300;67348;-29
2022/01/16 11:49:38;;;;;;;11.30;9.20;;;;;;100719.59;;;;106583;1297;62684;-42
2022/01/16 11:52:18;;;;;;;11.70;8.70;;;;;;100716.83;;;;106469;1299;62700;-41
2022/01/16 11:54:49;;;;;;;11.10;8.40;;;;;;100708.89;;;;106440;1299;62748;-29
2022/01/16 11:57:25;;;;;;;12.30;8.70;;;;;;100707.73;;;;106493;1298;62647;-29
2022/01/16 12:00:14;;;;;;;12.00;9.00;;;;;;100701.88;;;;106492;1299;67801;-29
2022/01/16 12:02:45;;;;;;;11.40;8.40;;;;;;100702.87;;;;106564;1297;62705;-29
2022/01/16 12:05:23;;;;;;;13.20;8.70;;;;;;100697.88;;;;106453;1299;62543;-29
2022/01/16 12:07:53;;;;;;;11.20;8.60;;;;;;100693.98;;;;106479;1299;62564;-29
2022/01/16 12:10:55;;;;;;;11.10;8.40;;;;;;100688.48;;;;106515;1299;62602;-42
2022/01/16 12:13:50;;;;;;;11.20;8.70;;;;;;100682.16;;;;106475;1299;67194;-41
2022/01/16 12:16:43;;;;;;;10.80;8.60;;;;;;100684.81;;;;106477;1298;62698;-31
2022/01/16 12:19:36;;;;;;;12.30;8.50;;;;;;100678.08;;;;106490;1300;62674;-29
2022/01/16 12:22:12;;;;;;;12.20;8.60;;;;;;100673.36;;;;106473;1299;62794;-29
2022/01/16 12:24:57;;;;;;;11.90;8.60;;;;;;100671.20;;;;106587;1297;62625;-29
2022/01/16 12:27:29;;;;;;;12.50;9.60;;;;;;100662.98;;;;106439;1299;67067;-29
2022/01/16 12:30:14;;;;;;;11.30;8.50;;;;;;100657.30;;;;106594;1297;62637;-42
2022/01/16 12:32:56;;;;;;;12.70;8.70;;;;;;100659.23;;;;106491;1299;62628;-42
2022/01/16 12:35:41;;;;;;;12.30;8.40;;;;;;100650.34;;;;106571;1296;62533;-41
2022/01/16 12:38:12;;;;;;;11.90;8.70;;;;;;100650.13;;;;106590;1296;62570;-40
2022/01/16 12:40:44;;;;;;;12.10;8.50;;;;;;100644.23;;;;106493;1298;66517;-42
2022/01/16 12:43:22;;;;;;;12.30;8.80;;;;;;100640.42;;;;106471;1297;62724;-42
2022/01/16 12:45:49;;;;;;;13.10;9.90;;;;;;100634.37;;;;106475;1300;62643;-30
2022/01/16 12:48:16;;;;;;;11.60;8.80;;;;;;100633.45;;;;106422;1298;62790;-30
2022/01/16 12:50:46;;;;;;;11.20;8.70;;;;;;100633.52;;;;106589;1296;62517;-30
2022/01/16 12:53:36;;;;;;;11.50;8.60;;;;;;100629.54;;;;106476;1298;66489;-42
2022/01/16 12:56:49;;;;;;;11.70;8.70;;;;;;100622.48;;;;106518;1297;62579;-41
2022/01/16 12:59:20;;;;;;;10.80;7.90;;;;;;100617.41;;;;106450;1299;62497;-42
2022/01/16 13:01:52;;;;;;;12.50;8.20;;;;;;100619.44;;;;106539;1297;62500;-42
2022/01/16 13:04:27;;;;;;;12.40;8.80;;;;;;100613.79;;;;106584;1297;62611;-41
2022/01/16 13:07:00;;;;;;;11.80;9.40;;;;;;100609.50;;;;106458;1298;68972;-42
2022/01/16 13:09:28;;;;;;;11.20;8.40;;;;;;100604.14;;;;106560;1297;62728;-39
2022/01/16 13:11:59;;;;;;;14.00;9.20;;;;;;100602.71;;;;106442;1300;62997;-40
2022/01/16 13:14:36;;;;;;;11.00;8.40;;;;;;100591.27;;;;106485;1299;62754;-29
2022/01/16 13:17:10;;;;;;;11.40;8.60;;;;;;100589.02;;;;106453;1299;62512;-28
2022/01/16 13:22:15;;;;;;;10.70;8.60;;;;;;100582.63;;;;106468;1299;62620;-29
2022/01/16 13:24:47;;;;;;;11.80;8.90;;;;;;100581.77;;;;106442;1300;62633;-41
2022/01/16 13:27:18;;;;;;;10.40;8.20;;;;;;100574.70;;;;106442;1298;62696;-42
2022/01/16 13:29:52;;;;;;;11.90;8.70;;;;;;100573.20;;;;106502;1300;62699;-29
2022/01/16 13:32:26;;;;;;;11.10;8.60;;;;;;100568.05;;;;106459;1297;67378;-29
2022/01/16 13:34:55;;;;;;;13.20;8.80;;;;;;100566.27;;;;106475;1299;62705;-29
2022/01/16 13:37:37;;;;;;;11.20;8.60;;;;;;100558.63;;;;106461;1299;62617;-29